DAL2951 KBDL-KATL
Flight info
| Callsign | DAL2951 |
|---|---|
| Flight time | 2h 7m |
| Altitude | 38000 |
| Route | DCT VEERS DCT PWL DCT BASYE DCT DBABE Q448 PTW J48 MOL DCT FLASK OZZZI2 |
| Aircraft | A32N/M-VGDW/C |
Departure
| Time | 2026-04-30 18:05 |
|---|---|
| Airport | Bradley International Airport (KBDL) |
Arrival
| Time | 2026-04-30 20:12 |
|---|---|
| Airport | Hartsfield Jackson Atlanta International Airport (KATL) |
| Time | Latitude | Longitude | Altitude | Speed | Heading |
|---|---|---|---|---|---|
| 2026-04-30 17:41 | 41.93004 | -72.68079 | 190 ft | 0 kts | 180° |
| 2026-04-30 17:52 | 41.93050 | -72.68107 | 177 ft | 4 kts | 133° |
| 2026-04-30 17:53 | 41.93099 | -72.68193 | 181 ft | 0 kts | 137° |
| 2026-04-30 17:56 | 41.93096 | -72.68184 | 181 ft | 2 kts | 115° |
| 2026-04-30 17:57 | 41.93191 | -72.68178 | 177 ft | 11 kts | 346° |
| 2026-04-30 17:58 | 41.93444 | -72.68441 | 177 ft | 19 kts | 315° |
| 2026-04-30 17:59 | 41.93633 | -72.68707 | 182 ft | 3 kts | 314° |
| 2026-04-30 18:00 | 41.93889 | -72.68488 | 180 ft | 20 kts | 43° |
| 2026-04-30 18:00 | 41.94236 | -72.68066 | 184 ft | 25 kts | 41° |
| 2026-04-30 18:01 | 41.94516 | -72.67704 | 177 ft | 31 kts | 44° |
| 2026-04-30 18:02 | 41.94895 | -72.67215 | 179 ft | 11 kts | 44° |
| 2026-04-30 18:02 | 41.94964 | -72.67144 | 179 ft | 7 kts | 10° |
| 2026-04-30 18:03 | 41.95025 | -72.67274 | 178 ft | 0 kts | 227° |
| 2026-04-30 18:04 | 41.94977 | -72.67338 | 177 ft | 39 kts | 224° |
| 2026-04-30 18:05 | 41.91907 | -72.71359 | 1667 ft | 216 kts | 226° |
| 2026-04-30 18:06 | 41.86940 | -72.77878 | 3959 ft | 261 kts | 237° |
| 2026-04-30 18:07 | 41.86914 | -72.87187 | 4068 ft | 260 kts | 278° |
| 2026-04-30 18:08 | 41.87676 | -72.94306 | 6959 ft | 252 kts | 276° |
| 2026-04-30 18:09 | 41.88633 | -73.04060 | 10464 ft | 276 kts | 274° |
| 2026-04-30 18:10 | 41.89764 | -73.15577 | 12806 ft | 326 kts | 274° |
| 2026-04-30 18:11 | 41.90610 | -73.27881 | 15927 ft | 331 kts | 258° |
| 2026-04-30 18:11 | 41.87676 | -73.36216 | 18136 ft | 336 kts | 238° |
| 2026-04-30 18:12 | 41.84017 | -73.44380 | 20017 ft | 344 kts | 238° |
| 2026-04-30 18:13 | 41.81535 | -73.49918 | 21255 ft | 349 kts | 238° |
| 2026-04-30 18:13 | 41.78055 | -73.57334 | 22816 ft | 357 kts | 230° |
| 2026-04-30 18:14 | 41.73284 | -73.61808 | 24030 ft | 372 kts | 204° |
| 2026-04-30 18:15 | 41.65849 | -73.65255 | 25464 ft | 381 kts | 203° |
| 2026-04-30 18:15 | 41.58291 | -73.68771 | 26869 ft | 387 kts | 204° |
| 2026-04-30 18:16 | 41.53198 | -73.71141 | 27701 ft | 393 kts | 204° |
| 2026-04-30 18:16 | 41.47997 | -73.73554 | 28509 ft | 398 kts | 204° |
| 2026-04-30 18:17 | 41.45366 | -73.74773 | 28867 ft | 401 kts | 204° |
| 2026-04-30 18:17 | 41.42724 | -73.75996 | 29233 ft | 403 kts | 204° |
| 2026-04-30 18:17 | 41.37419 | -73.78545 | 29942 ft | 405 kts | 208° |
| 2026-04-30 18:18 | 41.34940 | -73.80320 | 30213 ft | 404 kts | 216° |
| 2026-04-30 18:18 | 41.32689 | -73.82567 | 30504 ft | 404 kts | 224° |
| 2026-04-30 18:18 | 41.30730 | -73.85185 | 30780 ft | 404 kts | 230° |
| 2026-04-30 18:18 | 41.28855 | -73.87986 | 31117 ft | 406 kts | 230° |
| 2026-04-30 18:19 | 41.26967 | -73.90785 | 31511 ft | 405 kts | 230° |
| 2026-04-30 18:19 | 41.25086 | -73.93558 | 31972 ft | 403 kts | 230° |
| 2026-04-30 18:19 | 41.23206 | -73.96325 | 32357 ft | 402 kts | 230° |
| 2026-04-30 18:19 | 41.21331 | -73.99084 | 32711 ft | 402 kts | 230° |
| 2026-04-30 18:20 | 41.19452 | -74.01845 | 33045 ft | 404 kts | 230° |
| 2026-04-30 18:20 | 41.17562 | -74.04621 | 33311 ft | 405 kts | 230° |
| 2026-04-30 18:20 | 41.15670 | -74.07397 | 33648 ft | 405 kts | 230° |
| 2026-04-30 18:20 | 41.13780 | -74.10167 | 33976 ft | 405 kts | 230° |
| 2026-04-30 18:21 | 41.11976 | -74.12974 | 34252 ft | 404 kts | 232° |
| 2026-04-30 18:21 | 41.10214 | -74.15871 | 34517 ft | 404 kts | 233° |
| 2026-04-30 18:21 | 41.08458 | -74.18783 | 34795 ft | 402 kts | 233° |
| 2026-04-30 18:21 | 41.06705 | -74.21669 | 35081 ft | 401 kts | 233° |
| 2026-04-30 18:22 | 41.04942 | -74.24548 | 35296 ft | 402 kts | 232° |
| 2026-04-30 18:22 | 41.01395 | -74.30293 | 35747 ft | 403 kts | 232° |
| 2026-04-30 18:22 | 40.99616 | -74.33163 | 35963 ft | 403 kts | 232° |
| 2026-04-30 18:23 | 40.97838 | -74.36029 | 36223 ft | 403 kts | 232° |
| 2026-04-30 18:23 | 40.96053 | -74.38903 | 36365 ft | 405 kts | 232° |
| 2026-04-30 18:23 | 40.94262 | -74.41787 | 36578 ft | 405 kts | 232° |
| 2026-04-30 18:23 | 40.92473 | -74.44663 | 36777 ft | 405 kts | 232° |
| 2026-04-30 18:24 | 40.88925 | -74.50358 | 37247 ft | 403 kts | 232° |
| 2026-04-30 18:24 | 40.87141 | -74.53218 | 37434 ft | 403 kts | 232° |
| 2026-04-30 18:24 | 40.85355 | -74.56080 | 37618 ft | 403 kts | 232° |
| 2026-04-30 18:25 | 40.83566 | -74.58944 | 37791 ft | 404 kts | 232° |
| 2026-04-30 18:25 | 40.78208 | -74.67501 | 37827 ft | 402 kts | 232° |
| 2026-04-30 18:26 | 40.72855 | -74.76026 | 37822 ft | 400 kts | 232° |
| 2026-04-30 18:27 | 40.67525 | -74.84493 | 37818 ft | 401 kts | 232° |
| 2026-04-30 18:28 | 40.62187 | -74.92951 | 37823 ft | 401 kts | 232° |
| 2026-04-30 18:28 | 40.56837 | -75.01402 | 37832 ft | 400 kts | 232° |
| 2026-04-30 18:29 | 40.49752 | -75.12646 | 37825 ft | 401 kts | 232° |
| 2026-04-30 18:30 | 40.42647 | -75.23902 | 37843 ft | 401 kts | 232° |
| 2026-04-30 18:31 | 40.37288 | -75.32358 | 37857 ft | 400 kts | 232° |
| 2026-04-30 18:32 | 40.31946 | -75.40769 | 37854 ft | 400 kts | 232° |
| 2026-04-30 18:33 | 40.26611 | -75.49146 | 37851 ft | 401 kts | 232° |
| 2026-04-30 18:33 | 40.21375 | -75.57676 | 37855 ft | 399 kts | 237° |
| 2026-04-30 18:34 | 40.16801 | -75.66814 | 37859 ft | 399 kts | 238° |
| 2026-04-30 18:35 | 40.13752 | -75.72878 | 37858 ft | 400 kts | 238° |
| 2026-04-30 18:35 | 40.10691 | -75.78948 | 37884 ft | 400 kts | 238° |
| 2026-04-30 18:36 | 40.06086 | -75.88056 | 37841 ft | 401 kts | 238° |
| 2026-04-30 18:37 | 40.02902 | -75.94333 | 37836 ft | 397 kts | 238° |
| 2026-04-30 18:37 | 39.99859 | -76.00324 | 37838 ft | 396 kts | 238° |
| 2026-04-30 18:38 | 39.97316 | -76.05323 | 37834 ft | 397 kts | 238° |
| 2026-04-30 18:38 | 39.94260 | -76.11319 | 37837 ft | 396 kts | 238° |
| 2026-04-30 18:39 | 39.91200 | -76.17308 | 37837 ft | 397 kts | 238° |
| 2026-04-30 18:39 | 39.88154 | -76.23260 | 37841 ft | 397 kts | 238° |
| 2026-04-30 18:40 | 39.85081 | -76.29256 | 37842 ft | 398 kts | 238° |
| 2026-04-30 18:40 | 39.82004 | -76.35246 | 37843 ft | 398 kts | 238° |
| 2026-04-30 18:41 | 39.78925 | -76.41230 | 37851 ft | 398 kts | 238° |
| 2026-04-30 18:41 | 39.75840 | -76.47214 | 37846 ft | 398 kts | 238° |
| 2026-04-30 18:42 | 39.72752 | -76.53192 | 37837 ft | 399 kts | 238° |
| 2026-04-30 18:42 | 39.68108 | -76.62163 | 37850 ft | 398 kts | 238° |
| 2026-04-30 18:45 | 39.50920 | -76.94890 | 37829 ft | 401 kts | 233° |
| 2026-04-30 18:46 | 39.47162 | -77.00180 | 37868 ft | 404 kts | 226° |
| 2026-04-30 18:46 | 39.42849 | -77.04871 | 37870 ft | 406 kts | 223° |
| 2026-04-30 18:47 | 39.38464 | -77.09473 | 37896 ft | 406 kts | 223° |
| 2026-04-30 18:47 | 39.34082 | -77.14078 | 37886 ft | 406 kts | 223° |
| 2026-04-30 18:48 | 39.29697 | -77.18676 | 37880 ft | 405 kts | 223° |
| 2026-04-30 18:48 | 39.25330 | -77.23248 | 37905 ft | 404 kts | 223° |
| 2026-04-30 18:49 | 39.20949 | -77.27828 | 37879 ft | 405 kts | 223° |
| 2026-04-30 18:49 | 39.16592 | -77.32374 | 37879 ft | 405 kts | 223° |
| 2026-04-30 18:50 | 39.12205 | -77.36943 | 37893 ft | 405 kts | 223° |
| 2026-04-30 18:50 | 39.07823 | -77.41498 | 37895 ft | 403 kts | 223° |
| 2026-04-30 18:51 | 39.03461 | -77.46029 | 37896 ft | 403 kts | 223° |
| 2026-04-30 18:51 | 38.99123 | -77.50526 | 37869 ft | 403 kts | 223° |
| 2026-04-30 18:52 | 38.94755 | -77.55046 | 37869 ft | 403 kts | 223° |
| 2026-04-30 18:52 | 38.90372 | -77.59575 | 37882 ft | 402 kts | 224° |
| 2026-04-30 18:53 | 38.86030 | -77.64051 | 37869 ft | 403 kts | 224° |
| 2026-04-30 18:53 | 38.81662 | -77.68549 | 37875 ft | 403 kts | 224° |
| 2026-04-30 18:54 | 38.77282 | -77.73054 | 37869 ft | 403 kts | 224° |
| 2026-04-30 18:54 | 38.72906 | -77.77547 | 37881 ft | 403 kts | 224° |
| 2026-04-30 18:55 | 38.68527 | -77.82030 | 37867 ft | 402 kts | 224° |
| 2026-04-30 18:55 | 38.62518 | -77.89329 | 37882 ft | 396 kts | 234° |
| 2026-04-30 18:56 | 38.57551 | -77.97733 | 37875 ft | 395 kts | 237° |
| 2026-04-30 18:57 | 38.52598 | -78.06164 | 37882 ft | 395 kts | 237° |
| 2026-04-30 18:57 | 38.49293 | -78.11769 | 37878 ft | 394 kts | 237° |
| 2026-04-30 18:58 | 38.44278 | -78.20265 | 37871 ft | 405 kts | 237° |
| 2026-04-30 18:59 | 38.39200 | -78.28834 | 37874 ft | 405 kts | 237° |
| 2026-04-30 19:00 | 38.32461 | -78.40175 | 37877 ft | 390 kts | 237° |
| 2026-04-30 19:01 | 38.25900 | -78.51185 | 37877 ft | 391 kts | 237° |
| 2026-04-30 19:02 | 38.20956 | -78.59455 | 37876 ft | 391 kts | 237° |
| 2026-04-30 19:03 | 38.14352 | -78.70467 | 37873 ft | 391 kts | 237° |
| 2026-04-30 19:04 | 38.07760 | -78.81422 | 37901 ft | 390 kts | 238° |
| 2026-04-30 19:05 | 38.01183 | -78.92320 | 37896 ft | 390 kts | 238° |
| 2026-04-30 19:06 | 37.94573 | -79.03233 | 37878 ft | 390 kts | 238° |
| 2026-04-30 19:06 | 37.89574 | -79.11337 | 37967 ft | 394 kts | 235° |
| 2026-04-30 19:07 | 37.84040 | -79.19055 | 38048 ft | 394 kts | 234° |
| 2026-04-30 19:08 | 37.76680 | -79.29286 | 38114 ft | 394 kts | 234° |
| 2026-04-30 19:09 | 37.71136 | -79.36973 | 38120 ft | 394 kts | 234° |
| 2026-04-30 19:09 | 37.67452 | -79.42067 | 38101 ft | 392 kts | 234° |
| 2026-04-30 19:10 | 37.60883 | -79.51137 | 38030 ft | 392 kts | 234° |
| 2026-04-30 19:11 | 37.55359 | -79.58742 | 37953 ft | 391 kts | 234° |
| 2026-04-30 19:12 | 37.51679 | -79.63802 | 37897 ft | 391 kts | 234° |
| 2026-04-30 19:12 | 37.48003 | -79.68845 | 37919 ft | 390 kts | 235° |
| 2026-04-30 19:13 | 37.40668 | -79.78890 | 37950 ft | 390 kts | 234° |
| 2026-04-30 19:14 | 37.36985 | -79.83914 | 37947 ft | 388 kts | 235° |
| 2026-04-30 19:14 | 37.33345 | -79.88880 | 37951 ft | 388 kts | 235° |
| 2026-04-30 19:15 | 37.29680 | -79.93871 | 37952 ft | 389 kts | 235° |
| 2026-04-30 19:15 | 37.24200 | -80.01314 | 37920 ft | 386 kts | 236° |
| 2026-04-30 19:16 | 37.20554 | -80.06261 | 37929 ft | 385 kts | 236° |
| 2026-04-30 19:17 | 37.15070 | -80.13685 | 37953 ft | 386 kts | 236° |
| 2026-04-30 19:17 | 37.09617 | -80.21044 | 37960 ft | 383 kts | 237° |
| 2026-04-30 19:18 | 37.04179 | -80.28376 | 37966 ft | 384 kts | 237° |
| 2026-04-30 19:19 | 37.00525 | -80.33275 | 37959 ft | 386 kts | 236° |
| 2026-04-30 19:19 | 36.94920 | -80.40419 | 37937 ft | 385 kts | 235° |
| 2026-04-30 19:20 | 36.91166 | -80.45202 | 37919 ft | 384 kts | 235° |
| 2026-04-30 19:21 | 36.85557 | -80.52362 | 37848 ft | 384 kts | 236° |
| 2026-04-30 19:22 | 36.78107 | -80.61843 | 37917 ft | 380 kts | 236° |
| 2026-04-30 19:23 | 36.66991 | -80.75954 | 37949 ft | 381 kts | 236° |
| 2026-04-30 19:24 | 36.61407 | -80.83014 | 37936 ft | 380 kts | 236° |
| 2026-04-30 19:25 | 36.52744 | -80.93924 | 37914 ft | 375 kts | 237° |
| 2026-04-30 19:26 | 36.45373 | -81.03203 | 37932 ft | 377 kts | 237° |
| 2026-04-30 19:27 | 36.39820 | -81.10169 | 37948 ft | 379 kts | 237° |
| 2026-04-30 19:28 | 36.34261 | -81.17117 | 37964 ft | 378 kts | 237° |
| 2026-04-30 19:29 | 36.26901 | -81.26327 | 37964 ft | 377 kts | 237° |
| 2026-04-30 19:30 | 36.19528 | -81.35498 | 37944 ft | 374 kts | 237° |
| 2026-04-30 19:31 | 36.12194 | -81.44637 | 37906 ft | 376 kts | 237° |
| 2026-04-30 19:31 | 36.06675 | -81.51493 | 37893 ft | 375 kts | 238° |
| 2026-04-30 19:32 | 36.02967 | -81.56070 | 37877 ft | 375 kts | 238° |
| 2026-04-30 19:32 | 35.99287 | -81.60619 | 37876 ft | 372 kts | 238° |
| 2026-04-30 19:33 | 35.95630 | -81.65138 | 37830 ft | 375 kts | 238° |
| 2026-04-30 19:33 | 35.91947 | -81.69677 | 37876 ft | 372 kts | 238° |
| 2026-04-30 19:34 | 35.88276 | -81.74205 | 37881 ft | 374 kts | 238° |
| 2026-04-30 19:35 | 35.82762 | -81.80978 | 37941 ft | 374 kts | 238° |
| 2026-04-30 19:35 | 35.79072 | -81.85500 | 37926 ft | 374 kts | 238° |
| 2026-04-30 19:36 | 35.75345 | -81.89991 | 37914 ft | 375 kts | 237° |
| 2026-04-30 19:36 | 35.69744 | -81.96676 | 37908 ft | 375 kts | 237° |
| 2026-04-30 19:37 | 35.65995 | -82.01153 | 37902 ft | 375 kts | 237° |
| 2026-04-30 19:37 | 35.62260 | -82.05625 | 37894 ft | 374 kts | 237° |
| 2026-04-30 19:38 | 35.58511 | -82.10086 | 37898 ft | 375 kts | 237° |
| 2026-04-30 19:38 | 35.54766 | -82.14547 | 37901 ft | 376 kts | 238° |
| 2026-04-30 19:39 | 35.51000 | -82.19021 | 37914 ft | 375 kts | 238° |
| 2026-04-30 19:39 | 35.47261 | -82.23465 | 37892 ft | 378 kts | 237° |
| 2026-04-30 19:40 | 35.43440 | -82.27949 | 37898 ft | 378 kts | 237° |
| 2026-04-30 19:40 | 35.39722 | -82.32469 | 37883 ft | 374 kts | 239° |
| 2026-04-30 19:41 | 35.36105 | -82.37020 | 37886 ft | 373 kts | 239° |
| 2026-04-30 19:41 | 35.32465 | -82.41567 | 37900 ft | 373 kts | 239° |
| 2026-04-30 19:42 | 35.28830 | -82.46075 | 37899 ft | 372 kts | 239° |
| 2026-04-30 19:42 | 35.25209 | -82.50556 | 37935 ft | 374 kts | 239° |
| 2026-04-30 19:43 | 35.21532 | -82.55099 | 37930 ft | 375 kts | 239° |
| 2026-04-30 19:44 | 35.16017 | -82.61902 | 37916 ft | 374 kts | 239° |
| 2026-04-30 19:44 | 35.12293 | -82.66381 | 37892 ft | 376 kts | 238° |
| 2026-04-30 19:45 | 35.08524 | -82.70830 | 37896 ft | 377 kts | 238° |
| 2026-04-30 19:45 | 35.04756 | -82.75276 | 37890 ft | 376 kts | 238° |
| 2026-04-30 19:46 | 35.01008 | -82.79717 | 37891 ft | 379 kts | 237° |
| 2026-04-30 19:46 | 34.97226 | -82.84196 | 37522 ft | 379 kts | 238° |
| 2026-04-30 19:46 | 34.95329 | -82.86448 | 36864 ft | 382 kts | 238° |
| 2026-04-30 19:47 | 34.93420 | -82.88713 | 36150 ft | 383 kts | 237° |
| 2026-04-30 19:47 | 34.92144 | -82.90207 | 35698 ft | 384 kts | 237° |
| 2026-04-30 19:47 | 34.90432 | -82.92190 | 35083 ft | 384 kts | 237° |
| 2026-04-30 19:47 | 34.88492 | -82.94427 | 34340 ft | 385 kts | 237° |
| 2026-04-30 19:48 | 34.86551 | -82.96665 | 33626 ft | 384 kts | 237° |
| 2026-04-30 19:48 | 34.84616 | -82.98901 | 32942 ft | 381 kts | 237° |
| 2026-04-30 19:48 | 34.82698 | -83.01114 | 32263 ft | 379 kts | 236° |
| 2026-04-30 19:48 | 34.80813 | -83.03292 | 31572 ft | 377 kts | 236° |
| 2026-04-30 19:49 | 34.78918 | -83.05483 | 30959 ft | 373 kts | 236° |
| 2026-04-30 19:49 | 34.75223 | -83.09737 | 30038 ft | 359 kts | 235° |
| 2026-04-30 19:49 | 34.73425 | -83.11808 | 29525 ft | 353 kts | 235° |
| 2026-04-30 19:50 | 34.71661 | -83.13839 | 29069 ft | 346 kts | 235° |
| 2026-04-30 19:50 | 34.69927 | -83.15835 | 28611 ft | 340 kts | 235° |
| 2026-04-30 19:50 | 34.68168 | -83.17885 | 28152 ft | 361 kts | 234° |
| 2026-04-30 19:50 | 34.66322 | -83.20037 | 27674 ft | 372 kts | 234° |
| 2026-04-30 19:51 | 34.64436 | -83.22208 | 27180 ft | 373 kts | 233° |
| 2026-04-30 19:51 | 34.62555 | -83.24355 | 26688 ft | 369 kts | 233° |
| 2026-04-30 19:51 | 34.60720 | -83.26445 | 26206 ft | 363 kts | 233° |
| 2026-04-30 19:51 | 34.58894 | -83.28527 | 25724 ft | 357 kts | 233° |
| 2026-04-30 19:52 | 34.57101 | -83.30576 | 25249 ft | 351 kts | 233° |
| 2026-04-30 19:52 | 34.55336 | -83.32596 | 24776 ft | 346 kts | 233° |
| 2026-04-30 19:52 | 34.53605 | -83.34590 | 24312 ft | 340 kts | 232° |
| 2026-04-30 19:52 | 34.51899 | -83.36558 | 23856 ft | 336 kts | 232° |
| 2026-04-30 19:53 | 34.50206 | -83.38513 | 23366 ft | 337 kts | 232° |
| 2026-04-30 19:53 | 34.48440 | -83.40569 | 22872 ft | 364 kts | 231° |
| 2026-04-30 19:53 | 34.46576 | -83.42726 | 22348 ft | 374 kts | 231° |
| 2026-04-30 19:53 | 34.44702 | -83.44875 | 21827 ft | 376 kts | 231° |
| 2026-04-30 19:54 | 34.42807 | -83.47036 | 21312 ft | 372 kts | 230° |
| 2026-04-30 19:54 | 34.40931 | -83.49172 | 20803 ft | 366 kts | 230° |
| 2026-04-30 19:54 | 34.39092 | -83.51270 | 20295 ft | 360 kts | 230° |
| 2026-04-30 19:54 | 34.37288 | -83.53330 | 19938 ft | 351 kts | 231° |
| 2026-04-30 19:55 | 34.35501 | -83.55375 | 19714 ft | 355 kts | 230° |
| 2026-04-30 19:55 | 34.33701 | -83.57442 | 19471 ft | 357 kts | 230° |
| 2026-04-30 19:55 | 34.31904 | -83.59497 | 19236 ft | 355 kts | 230° |
| 2026-04-30 19:55 | 34.30110 | -83.61543 | 18974 ft | 353 kts | 230° |
| 2026-04-30 19:56 | 34.28320 | -83.63575 | 18740 ft | 352 kts | 230° |
| 2026-04-30 19:56 | 34.26520 | -83.65522 | 18514 ft | 352 kts | 229° |
| 2026-04-30 19:56 | 34.24667 | -83.67474 | 18265 ft | 352 kts | 228° |
| 2026-04-30 19:56 | 34.22810 | -83.69424 | 17729 ft | 353 kts | 228° |
| 2026-04-30 19:57 | 34.20967 | -83.71368 | 17218 ft | 350 kts | 228° |
| 2026-04-30 19:57 | 34.19147 | -83.73292 | 16695 ft | 345 kts | 227° |
| 2026-04-30 19:57 | 34.17354 | -83.75193 | 16177 ft | 341 kts | 227° |
| 2026-04-30 19:57 | 34.15580 | -83.77075 | 15667 ft | 337 kts | 227° |
| 2026-04-30 19:58 | 34.13832 | -83.78931 | 15209 ft | 333 kts | 227° |
| 2026-04-30 19:58 | 34.12098 | -83.80773 | 14706 ft | 330 kts | 226° |
| 2026-04-30 19:58 | 34.10375 | -83.82600 | 14243 ft | 327 kts | 226° |
| 2026-04-30 19:58 | 34.08662 | -83.84424 | 14021 ft | 341 kts | 226° |
| 2026-04-30 19:59 | 34.06881 | -83.86338 | 13859 ft | 342 kts | 226° |
| 2026-04-30 19:59 | 34.05128 | -83.88219 | 13768 ft | 332 kts | 226° |
| 2026-04-30 19:59 | 34.01808 | -83.91771 | 13529 ft | 305 kts | 226° |
| 2026-04-30 20:00 | 34.00246 | -83.93443 | 13280 ft | 296 kts | 226° |
| 2026-04-30 20:00 | 33.98711 | -83.95086 | 12845 ft | 295 kts | 225° |
| 2026-04-30 20:00 | 33.96931 | -83.96356 | 12380 ft | 303 kts | 204° |
| 2026-04-30 20:00 | 33.94832 | -83.96767 | 11908 ft | 312 kts | 184° |
| 2026-04-30 20:01 | 33.90519 | -83.96571 | 11109 ft | 307 kts | 182° |
| 2026-04-30 20:01 | 33.88386 | -83.96471 | 10707 ft | 306 kts | 182° |
| 2026-04-30 20:01 | 33.86284 | -83.96376 | 10429 ft | 299 kts | 182° |
| 2026-04-30 20:02 | 33.82305 | -83.96200 | 10189 ft | 276 kts | 182° |
| 2026-04-30 20:02 | 33.80401 | -83.96120 | 9930 ft | 271 kts | 182° |
| 2026-04-30 20:03 | 33.76610 | -83.95983 | 9400 ft | 270 kts | 186° |
| 2026-04-30 20:03 | 33.74771 | -83.96290 | 9013 ft | 264 kts | 199° |
| 2026-04-30 20:03 | 33.73060 | -83.97057 | 8453 ft | 262 kts | 207° |
| 2026-04-30 20:03 | 33.71384 | -83.97915 | 7869 ft | 262 kts | 206° |
| 2026-04-30 20:04 | 33.69696 | -83.98764 | 7225 ft | 263 kts | 205° |
| 2026-04-30 20:04 | 33.67998 | -83.99611 | 6593 ft | 265 kts | 205° |
| 2026-04-30 20:04 | 33.66343 | -84.00585 | 5963 ft | 263 kts | 220° |
| 2026-04-30 20:05 | 33.64914 | -84.04244 | 5065 ft | 241 kts | 274° |
| 2026-04-30 20:05 | 33.64931 | -84.06210 | 4964 ft | 232 kts | 274° |
| 2026-04-30 20:05 | 33.64936 | -84.09877 | 4958 ft | 218 kts | 274° |
| 2026-04-30 20:06 | 33.64938 | -84.11690 | 4966 ft | 217 kts | 274° |
| 2026-04-30 20:06 | 33.64939 | -84.13502 | 4956 ft | 217 kts | 274° |
| 2026-04-30 20:06 | 33.64938 | -84.15276 | 4870 ft | 205 kts | 274° |
| 2026-04-30 20:06 | 33.64937 | -84.16950 | 4546 ft | 198 kts | 275° |
| 2026-04-30 20:07 | 33.64940 | -84.18567 | 4221 ft | 184 kts | 274° |
| 2026-04-30 20:07 | 33.64939 | -84.20025 | 3921 ft | 176 kts | 274° |
| 2026-04-30 20:07 | 33.64953 | -84.22944 | 3186 ft | 171 kts | 273° |
| 2026-04-30 20:08 | 33.64954 | -84.24361 | 3106 ft | 172 kts | 273° |
| 2026-04-30 20:08 | 33.64954 | -84.25789 | 3030 ft | 173 kts | 272° |
| 2026-04-30 20:08 | 33.64952 | -84.27199 | 2882 ft | 165 kts | 273° |
| 2026-04-30 20:08 | 33.64953 | -84.28505 | 2740 ft | 148 kts | 273° |
| 2026-04-30 20:09 | 33.64953 | -84.29750 | 2681 ft | 148 kts | 273° |
| 2026-04-30 20:09 | 33.64954 | -84.31008 | 2681 ft | 146 kts | 275° |
| 2026-04-30 20:09 | 33.64953 | -84.33455 | 2473 ft | 147 kts | 273° |
| 2026-04-30 20:10 | 33.64926 | -84.35876 | 1891 ft | 137 kts | 275° |
| 2026-04-30 20:10 | 33.64947 | -84.36999 | 1729 ft | 132 kts | 275° |
| 2026-04-30 20:10 | 33.64953 | -84.38128 | 1491 ft | 137 kts | 274° |
| 2026-04-30 20:11 | 33.64948 | -84.40412 | 1108 ft | 137 kts | 275° |
| 2026-04-30 20:11 | 33.64952 | -84.41521 | 1007 ft | 125 kts | 275° |
| 2026-04-30 20:11 | 33.64965 | -84.42424 | 1006 ft | 87 kts | 269° |
| 2026-04-30 20:12 | 33.64934 | -84.43147 | 1006 ft | 19 kts | 254° |
| 2026-04-30 20:12 | 33.64878 | -84.43302 | 1006 ft | 22 kts | 242° |
| 2026-04-30 20:12 | 33.64840 | -84.43441 | 1006 ft | 15 kts | 263° |
| 2026-04-30 20:13 | 33.64799 | -84.43546 | 1006 ft | 15 kts | 210° |
| 2026-04-30 20:13 | 33.64706 | -84.43608 | 1006 ft | 12 kts | 209° |
| 2026-04-30 20:13 | 33.64624 | -84.43663 | 1006 ft | 14 kts | 207° |
| 2026-04-30 20:13 | 33.64545 | -84.43624 | 1006 ft | 15 kts | 108° |
| 2026-04-30 20:14 | 33.64542 | -84.43489 | 1006 ft | 18 kts | 94° |
| 2026-04-30 20:14 | 33.64449 | -84.43431 | 1006 ft | 19 kts | 199° |
| 2026-04-30 20:14 | 33.64318 | -84.43457 | 1006 ft | 16 kts | 180° |
| 2026-04-30 20:14 | 33.64245 | -84.43456 | 1006 ft | 1 kts | 180° |
| 2026-04-30 20:15 | 33.64237 | -84.43456 | 1006 ft | 0 kts | 180° |
| 2026-04-30 20:16 | 33.64235 | -84.43456 | 1006 ft | 2 kts | 180° |
| 2026-04-30 20:16 | 33.64210 | -84.43456 | 1006 ft | 6 kts | 180° |
| 2026-04-30 20:16 | 33.64158 | -84.43456 | 1006 ft | 9 kts | 180° |
| 2026-04-30 20:17 | 33.64080 | -84.43455 | 1006 ft | 10 kts | 180° |
| 2026-04-30 20:17 | 33.64048 | -84.43462 | 1006 ft | 5 kts | 212° |
| 2026-04-30 20:17 | 33.64039 | -84.43512 | 1006 ft | 7 kts | 269° |
| 2026-04-30 20:17 | 33.64039 | -84.43529 | 1006 ft | 0 kts | 270° |